Time;durP1;ratioP1;P1;durP2;ratioP2;P2;SDS_P1;SDS_P2;PMS_P1;PMS_P2;Temp;Humidity;BMP_temperature;BMP_pressure;BME280_temperature;BME280_humidity;BME280_pressure;Samples;Min_cycle;Max_cycle;Signal;HPM_P1;HPM_P2
2022/12/15 00:40:42;;;;;;;3.67;2.22;;;;;;;;;;21258743;27;20434;-62
2022/12/15 00:50:53;;;;;;;5.68;2.47;;;;;;;;;;21260628;27;20448;-61
2022/12/15 01:21:37;;;;;;;3.10;1.98;;;;;;;;;;21256239;27;20047;-60
2022/12/15 01:31:39;;;;;;;3.83;2.08;;;;;;;;;;21237289;27;20130;-61
2022/12/15 01:41:41;;;;;;;4.47;2.17;;;;;;;;;;21254516;27;20051;-60
2022/12/15 01:51:46;;;;;;;3.90;2.28;;;;;;;;;;21252343;27;20095;-60
2022/12/15 02:01:48;;;;;;;3.42;2.00;;;;;;;;;;21252611;27;20102;-61
2022/12/15 02:12:03;;;;;;;2.72;1.70;;;;;;;;;;21253015;27;20050;-60
2022/12/15 02:22:08;;;;;;;3.53;2.05;;;;;;;;;;21252549;27;20078;-61
2022/12/15 02:32:14;;;;;;;5.40;2.15;;;;;;;;;;21251090;27;20043;-61
2022/12/15 02:42:18;;;;;;;2.50;1.10;;;;;;;;;;21250380;27;20051;-59
2022/12/15 02:52:41;;;;;;;1.70;0.70;;;;;;;;;;21250545;27;20540;-61
2022/12/15 03:02:53;;;;;;;2.40;1.40;;;;;;;;;;21231229;27;20141;-62
2022/12/15 03:12:59;;;;;;;3.85;1.67;;;;;;;;;;21248801;28;20047;-59
2022/12/15 03:23:03;;;;;;;3.10;1.45;;;;;;;;;;21229442;28;20051;-58
2022/12/15 03:33:05;;;;;;;2.05;1.15;;;;;;;;;;21247614;28;20051;-60
2022/12/15 03:43:08;;;;;;;2.88;1.23;;;;;;;;;;21246466;28;20058;-60
2022/12/15 03:53:10;;;;;;;4.03;1.30;;;;;;;;;;21246258;28;20051;-60
2022/12/15 04:03:12;;;;;;;2.53;0.93;;;;;;;;;;21245994;28;20047;-61
2022/12/15 04:13:14;;;;;;;1.60;0.70;;;;;;;;;;21254381;27;20050;-60
2022/12/15 04:23:17;;;;;;;1.67;1.10;;;;;;;;;;21260748;27;20054;-60
2022/12/15 05:35:29;;;;;;;2.47;1.35;;;;;;;;;;21254096;27;20055;-60
2022/12/15 05:45:32;;;;;;;2.42;0.73;;;;;;;;;;21255539;27;20471;-61
2022/12/15 05:55:34;;;;;;;2.65;0.82;;;;;;;;;;21254692;27;20131;-61
2022/12/15 06:05:39;;;;;;;3.53;0.93;;;;;;;;;;21252434;27;20047;-61
2022/12/15 06:15:41;;;;;;;3.05;1.63;;;;;;;;;;21251659;27;20471;-61
2022/12/15 06:25:43;;;;;;;2.03;1.27;;;;;;;;;;21230320;27;20047;-61
2022/12/15 06:35:45;;;;;;;1.92;1.10;;;;;;;;;;21247682;27;20411;-60
2022/12/15 06:45:48;;;;;;;2.75;1.20;;;;;;;;;;21248963;27;20432;-61
2022/12/15 06:55:51;;;;;;;2.58;1.40;;;;;;;;;;21247629;27;20043;-61
2022/12/15 07:06:02;;;;;;;3.10;1.15;;;;;;;;;;21249477;27;20130;-60
2022/12/15 07:16:06;;;;;;;3.00;1.83;;;;;;;;;;21248487;28;20057;-60
2022/12/15 07:26:09;;;;;;;6.25;2.70;;;;;;;;;;21248426;28;20047;-60
2022/12/15 07:36:12;;;;;;;4.43;1.75;;;;;;;;;;21246994;28;20407;-59
2022/12/15 07:46:16;;;;;;;5.10;2.40;;;;;;;;;;21252950;27;20414;-60
2022/12/15 07:56:18;;;;;;;4.18;2.67;;;;;;;;;;21262960;27;20043;-61
2022/12/15 08:06:20;;;;;;;5.57;2.88;;;;;;;;;;21262165;27;20070;-61
2022/12/15 08:16:22;;;;;;;5.30;3.22;;;;;;;;;;21261909;27;20476;-61
2022/12/15 08:26:25;;;;;;;5.38;3.40;;;;;;;;;;21261248;27;20047;-61
2022/12/15 08:36:27;;;;;;;9.45;4.47;;;;;;;;;;21260199;27;20043;-60
2022/12/15 08:46:32;;;;;;;9.00;5.63;;;;;;;;;;21259433;27;20054;-59
2022/12/15 08:56:35;;;;;;;9.68;5.88;;;;;;;;;;21257875;27;20440;-60
2022/12/15 09:06:37;;;;;;;7.57;5.10;;;;;;;;;;21257986;27;20134;-59
2022/12/15 09:16:39;;;;;;;5.70;3.15;;;;;;;;;;21257081;27;20092;-59
2022/12/15 09:26:41;;;;;;;4.93;2.15;;;;;;;;;;21256160;27;20096;-61
2022/12/15 09:36:43;;;;;;;3.75;1.55;;;;;;;;;;21254510;27;20380;-61
2022/12/15 09:47:00;;;;;;;6.20;1.05;;;;;;;;;;21253408;27;20104;-61
2022/12/15 09:57:19;;;;;;;3.70;0.98;;;;;;;;;;21252853;27;20073;-61
2022/12/15 10:07:33;;;;;;;4.68;1.23;;;;;;;;;;21251709;27;20043;-61
2022/12/15 10:17:38;;;;;;;4.88;1.05;;;;;;;;;;21251376;27;20047;-61
2022/12/15 10:27:45;;;;;;;6.10;0.95;;;;;;;;;;21250393;27;20405;-66
2022/12/15 10:37:47;;;;;;;4.78;1.40;;;;;;;;;;21245950;27;20043;-62
2022/12/15 10:48:05;;;;;;;4.97;0.70;;;;;;;;;;21249588;27;20411;-62
2022/12/15 10:58:18;;;;;;;7.07;1.42;;;;;;;;;;21248388;27;20115;-63
2022/12/15 11:08:21;;;;;;;8.80;1.98;;;;;;;;;;21248895;27;20155;-63
2022/12/15 11:18:27;;;;;;;5.40;1.13;;;;;;;;;;21249577;27;20069;-62
2022/12/15 11:28:44;;;;;;;5.07;1.35;;;;;;;;;;21264804;27;20138;-63
2022/12/15 11:39:21;;;;;;;5.97;1.27;;;;;;;;;;21263630;27;20126;-62
2022/12/15 11:49:26;;;;;;;5.35;1.20;;;;;;;;;;20835822;28;20060;-62
2022/12/15 11:59:48;;;;;;;4.20;0.95;;;;;;;;;;20834795;28;20572;-62
2022/12/15 12:09:52;;;;;;;8.13;1.38;;;;;;;;;;20824577;28;20125;-62
2022/12/15 12:19:58;;;;;;;8.18;1.00;;;;;;;;;;21063929;27;20479;-61
2022/12/15 12:30:11;;;;;;;4.30;1.00;;;;;;;;;;21260571;27;20079;-62
2022/12/15 12:40:28;;;;;;;5.70;1.05;;;;;;;;;;21259064;27;20050;-61
2022/12/15 12:50:32;;;;;;;5.22;0.60;;;;;;;;;;21259514;27;20043;-61
2022/12/15 13:00:34;;;;;;;3.25;0.73;;;;;;;;;;21258412;27;20491;-63
2022/12/15 13:10:37;;;;;;;5.32;0.98;;;;;;;;;;21256456;27;20043;-62
2022/12/15 13:20:39;;;;;;;5.22;1.80;;;;;;;;;;21256123;27;20047;-63
2022/12/15 13:31:20;;;;;;;4.18;0.90;;;;;;;;;;21255082;27;20047;-62
2022/12/15 13:41:23;;;;;;;5.15;0.88;;;;;;;;;;20810551;28;20133;-62
2022/12/15 13:51:29;;;;;;;3.00;0.70;;;;;;;;;;20826061;28;20383;-62
2022/12/15 14:01:32;;;;;;;2.38;0.63;;;;;;;;;;20825939;28;20085;-63
2022/12/15 14:11:35;;;;;;;3.42;0.60;;;;;;;;;;21043752;27;20072;-62
2022/12/15 14:21:37;;;;;;;4.75;1.05;;;;;;;;;;21251604;27;20424;-62
2022/12/15 14:31:39;;;;;;;2.78;0.65;;;;;;;;;;21250616;27;20087;-61
2022/12/15 14:41:44;;;;;;;3.90;0.98;;;;;;;;;;21249637;27;20051;-61
2022/12/15 14:51:49;;;;;;;3.88;1.08;;;;;;;;;;21249358;27;20070;-61
2022/12/15 15:01:51;;;;;;;4.55;0.90;;;;;;;;;;21247762;27;20055;-61
2022/12/15 15:12:03;;;;;;;4.47;0.93;;;;;;;;;;21248699;27;20040;-62
2022/12/15 15:22:05;;;;;;;7.80;1.38;;;;;;;;;;21247827;28;20050;-61
2022/12/15 15:32:14;;;;;;;4.50;1.15;;;;;;;;;;21247259;28;20043;-62
2022/12/15 15:42:16;;;;;;;;;;;;;;;;;;21248138;28;20407;-61
2022/12/15 15:52:17;;;;;;;5.20;1.10;;;;;;;;;;21246662;28;19919;-61
2022/12/15 16:02:19;;;;;;;6.15;1.45;;;;;;;;;;21245763;28;20112;-63
2022/12/15 16:12:24;;;;;;;5.22;1.45;;;;;;;;;;21241857;27;20411;-63
2022/12/15 16:22:25;;;;;;;5.22;1.08;;;;;;;;;;21260401;27;20438;-65
2022/12/15 16:32:27;;;;;;;5.55;1.10;;;;;;;;;;21259580;27;20047;-62
2022/12/15 16:42:29;;;;;;;7.53;1.27;;;;;;;;;;21239781;27;20054;-61
2022/12/15 16:52:30;;;;;;;7.25;1.80;;;;;;;;;;21258022;27;20051;-61
2022/12/15 17:02:32;;;;;;;2.85;1.10;;;;;;;;;;21256512;27;20426;-62
2022/12/15 17:12:34;;;;;;;7.72;1.90;;;;;;;;;;21256298;27;20039;-61
2022/12/15 17:22:36;;;;;;;4.15;1.00;;;;;;;;;;21255637;27;20047;-60
2022/12/15 17:32:37;;;;;;;6.72;1.15;;;;;;;;;;21257665;27;20039;-60
2022/12/15 17:42:39;;;;;;;6.25;2.10;;;;;;;;;;21253526;27;20059;-60
2022/12/15 17:52:42;;;;;;;6.05;1.60;;;;;;;;;;21252209;27;20411;-59
2022/12/15 18:02:43;;;;;;;7.07;2.17;;;;;;;;;;21251942;27;20051;-58
2022/12/15 18:12:45;;;;;;;4.72;2.38;;;;;;;;;;21252126;27;20047;-58
2022/12/15 18:22:48;;;;;;;5.00;1.38;;;;;;;;;;21251126;27;20047;-58
2022/12/15 18:32:51;;;;;;;5.25;1.40;;;;;;;;;;21248985;27;20046;-60
2022/12/15 18:42:53;;;;;;;6.07;1.40;;;;;;;;;;21249710;27;20414;-59
2022/12/15 18:52:58;;;;;;;5.05;1.05;;;;;;;;;;21249520;27;20050;-60
2022/12/15 19:03:00;;;;;;;7.05;1.38;;;;;;;;;;21212913;27;20079;-61
2022/12/15 19:13:01;;;;;;;4.00;0.95;;;;;;;;;;21237751;27;20551;-67
2022/12/15 19:23:03;;;;;;;4.68;1.55;;;;;;;;;;21247216;28;20055;-62
2022/12/15 19:33:05;;;;;;;10.00;4.78;;;;;;;;;;21245429;28;20078;-63
2022/12/15 19:43:09;;;;;;;8.57;2.10;;;;;;;;;;21254889;27;20043;-62
2022/12/15 19:53:30;;;;;;;4.35;1.65;;;;;;;;;;21261644;27;20126;-61
2022/12/15 20:03:32;;;;;;;7.72;2.17;;;;;;;;;;21261793;27;20039;-61
2022/12/15 20:13:33;;;;;;;4.78;1.63;;;;;;;;;;21260959;27;20101;-62
2022/12/15 20:23:38;;;;;;;6.05;1.65;;;;;;;;;;21260361;27;20054;-64
2022/12/15 20:33:44;;;;;;;5.60;1.60;;;;;;;;;;21259158;27;20047;-70
2022/12/15 20:43:46;;;;;;;6.85;2.08;;;;;;;;;;21258790;27;20055;-60
2022/12/15 20:53:49;;;;;;;9.10;2.72;;;;;;;;;;21258396;27;20047;-59
2022/12/15 21:03:53;;;;;;;8.40;2.10;;;;;;;;;;21239220;27;20051;-59
2022/12/15 21:13:57;;;;;;;11.90;1.90;;;;;;;;;;21256732;27;20040;-59
2022/12/15 21:24:00;;;;;;;8.07;2.60;;;;;;;;;;21255691;27;20108;-59
2022/12/15 21:34:02;;;;;;;3.38;1.23;;;;;;;;;;21256299;27;20479;-60
2022/12/15 21:44:03;;;;;;;7.32;1.67;;;;;;;;;;21253751;27;20503;-59
2022/12/15 21:54:06;;;;;;;6.13;1.55;;;;;;;;;;21236270;27;20047;-62
2022/12/15 22:04:15;;;;;;;8.60;1.60;;;;;;;;;;21166662;28;20097;-62
2022/12/15 22:14:25;;;;;;;7.18;1.50;;;;;;;;;;21167196;28;20409;-61
2022/12/15 22:24:29;;;;;;;11.85;1.90;;;;;;;;;;21167311;28;20078;-62
2022/12/15 22:34:32;;;;;;;9.20;1.85;;;;;;;;;;21166121;28;20074;-61
2022/12/15 22:44:37;;;;;;;7.38;1.90;;;;;;;;;;21164619;28;20044;-61
2022/12/15 22:54:41;;;;;;;8.32;1.40;;;;;;;;;;21164323;28;20059;-62
2022/12/15 23:04:45;;;;;;;8.15;1.73;;;;;;;;;;21163965;28;20058;-62
2022/12/15 23:25:09;;;;;;;6.05;1.30;;;;;;;;;;21163327;28;20086;-62
2022/12/15 23:35:11;;;;;;;6.30;1.35;;;;;;;;;;21162381;28;20602;-61
2022/12/15 23:45:13;;;;;;;12.70;1.10;;;;;;;;;;21161851;28;20130;-61
2022/12/15 23:55:16;;;;;;;4.00;1.17;;;;;;;;;;21161711;28;20047;-60
